createdAt,value
2019-01-14T00:01:09.913Z,77.05
2019-01-14T00:03:41.734Z,76.96
2019-01-14T00:06:13.855Z,77.08
2019-01-14T00:08:43.408Z,77.25
2019-01-14T00:11:13.447Z,77.70
2019-01-14T00:13:43.500Z,77.66
2019-01-14T00:16:13.160Z,77.58
2019-01-14T00:18:42.900Z,77.78
2019-01-14T00:21:12.568Z,78.42
2019-01-14T00:23:42.121Z,78.29
2019-01-14T00:26:11.673Z,78.39
2019-01-14T00:28:41.475Z,78.32
2019-01-14T00:31:11.014Z,78.70
2019-01-14T00:33:40.531Z,78.97
2019-01-14T00:36:17.246Z,78.88
2019-01-14T00:38:44.651Z,79.43
2019-01-14T00:41:14.178Z,79.40
2019-01-14T00:43:43.711Z,79.63
2019-01-14T00:46:13.255Z,79.58
2019-01-14T00:48:46.885Z,79.70
2019-01-14T00:51:16.419Z,79.98
2019-01-14T00:53:45.982Z,80.57
2019-01-14T00:56:17.471Z,80.96
2019-01-14T00:58:47.535Z,81.36
2019-01-14T01:01:17.023Z,81.91
2019-01-14T01:03:46.573Z,82.89
2019-01-14T01:06:16.341Z,83.12
2019-01-14T01:08:45.966Z,83.44
2019-01-14T01:11:15.503Z,83.95
2019-01-14T01:13:45.029Z,84.17
2019-01-14T01:16:14.591Z,84.46
2019-01-14T01:18:44.222Z,84.32
2019-01-14T01:21:13.727Z,84.69
2019-01-14T01:23:43.327Z,84.92
2019-01-14T01:26:12.854Z,84.70
2019-01-14T01:28:42.404Z,84.79
2019-01-14T01:31:11.924Z,84.71
2019-01-14T01:36:40.888Z,84.91
2019-01-14T01:39:10.426Z,85.07
2019-01-14T01:41:39.975Z,84.70
2019-01-14T01:44:09.525Z,84.08
2019-01-14T01:46:40.169Z,84.54
2019-01-14T01:49:09.688Z,84.56
2019-01-14T01:51:39.236Z,83.87
2019-01-14T01:54:08.771Z,83.90
2019-01-14T01:56:38.331Z,83.84
2019-01-14T01:59:07.858Z,84.20
2019-01-14T02:01:37.369Z,84.19
2019-01-14T02:04:07.088Z,84.26
2019-01-14T02:06:39.256Z,84.36
2019-01-14T02:09:09.312Z,84.52
2019-01-14T02:11:38.836Z,84.61
2019-01-14T02:14:08.819Z,84.51
2019-01-14T02:16:38.927Z,84.48
2019-01-14T02:19:08.442Z,84.38
2019-01-14T02:21:37.985Z,84.36
2019-01-14T02:24:07.545Z,84.43
2019-01-14T02:26:38.113Z,84.53
2019-01-14T02:29:07.620Z,84.42
2019-01-14T02:31:37.151Z,84.37
2019-01-14T02:34:06.670Z,84.45
2019-01-14T02:36:36.241Z,84.44
2019-01-14T02:39:07.453Z,84.40
2019-01-14T02:41:37.231Z,84.53
2019-01-14T02:44:06.763Z,84.57
2019-01-14T02:46:39.405Z,84.57
2019-01-14T02:49:08.860Z,84.46
2019-01-14T02:51:39.436Z,84.31
2019-01-14T02:54:09.011Z,84.22
2019-01-14T02:56:38.534Z,84.18
2019-01-14T02:59:08.057Z,84.16
2019-01-14T03:01:37.611Z,84.21
2019-01-14T03:04:07.403Z,84.69
2019-01-14T03:06:38.471Z,84.50
2019-01-14T03:09:09.223Z,84.65
2019-01-14T03:11:38.750Z,84.70
2019-01-14T03:14:08.286Z,84.70
2019-01-14T03:16:37.821Z,85.01
2019-01-14T03:19:07.376Z,85.21
2019-01-14T03:21:36.906Z,85.16
2019-01-14T03:24:06.458Z,85.47
2019-01-14T03:26:37.110Z,85.70
2019-01-14T03:29:06.899Z,85.97
2019-01-14T03:31:36.688Z,85.86
2019-01-14T03:34:06.245Z,85.92
2019-01-14T03:36:35.832Z,85.94
2019-01-14T03:39:07.447Z,85.79
2019-01-14T03:41:37.109Z,85.74
2019-01-14T03:44:06.691Z,85.62
2019-01-14T03:46:37.341Z,85.61
2019-01-14T03:49:06.869Z,85.48
2019-01-14T03:51:36.404Z,85.39
2019-01-14T03:54:07.778Z,85.31
2019-01-14T03:56:37.238Z,85.13
2019-01-14T03:59:06.883Z,85.26
2019-01-14T04:01:36.424Z,85.42
2019-01-14T04:04:06.008Z,85.61
2019-01-14T04:06:35.556Z,85.40
2019-01-14T04:09:07.149Z,85.35
2019-01-14T04:11:36.751Z,85.40
2019-01-14T04:14:06.533Z,85.51
2019-01-14T04:16:36.100Z,85.46
2019-01-14T04:19:05.792Z,85.33
2019-01-14T04:21:35.515Z,85.21
2019-01-14T04:24:05.043Z,85.19
2019-01-14T04:26:36.247Z,85.21
2019-01-14T04:29:05.859Z,85.61
2019-01-14T04:31:35.429Z,85.81
2019-01-14T04:34:05.421Z,86.01
2019-01-14T04:36:34.979Z,86.16
2019-01-14T04:39:07.338Z,86.05
2019-01-14T04:41:36.850Z,85.76
2019-01-14T04:44:06.407Z,85.46
2019-01-14T04:46:35.979Z,85.52
2019-01-14T04:49:05.540Z,85.58
2019-01-14T04:51:35.098Z,85.66
2019-01-14T04:54:04.606Z,85.82
2019-01-14T04:56:34.159Z,85.69
2019-01-14T04:59:03.704Z,85.33
2019-01-14T05:01:33.232Z,85.19
2019-01-14T05:04:03.087Z,85.03
2019-01-14T05:06:32.687Z,85.03
2019-01-14T05:09:02.203Z,84.90
2019-01-14T05:11:31.732Z,84.80
2019-01-14T05:14:01.244Z,84.70
2019-01-14T05:16:30.779Z,84.58
2019-01-14T05:19:00.319Z,84.48
2019-01-14T05:21:29.859Z,84.33
2019-01-14T05:23:59.396Z,84.19
2019-01-14T05:26:29.194Z,84.19
2019-01-14T05:28:58.738Z,84.21
2019-01-14T05:31:28.294Z,84.17
2019-01-14T05:33:57.844Z,84.49
2019-01-14T05:36:27.440Z,84.44
2019-01-14T05:38:57.031Z,84.69
2019-01-14T05:41:26.562Z,84.66
2019-01-14T05:43:56.083Z,84.58
2019-01-14T05:46:25.647Z,84.72
2019-01-14T05:48:55.196Z,85.02
2019-01-14T05:51:24.744Z,84.99
2019-01-14T05:53:54.313Z,84.90
2019-01-14T05:56:23.863Z,85.00
2019-01-14T05:58:53.667Z,85.25
2019-01-14T06:01:25.007Z,85.08
2019-01-14T06:03:54.558Z,85.13
2019-01-14T06:06:24.088Z,85.40
2019-01-14T06:08:53.644Z,85.10
2019-01-14T06:11:23.183Z,85.01
2019-01-14T06:13:52.759Z,85.16
2019-01-14T06:16:22.292Z,85.25
2019-01-14T06:18:51.816Z,85.20
2019-01-14T06:21:21.371Z,85.19
2019-01-14T06:23:50.889Z,85.26
2019-01-14T06:26:20.440Z,85.38
2019-01-14T06:28:49.970Z,85.25
2019-01-14T06:31:19.517Z,84.23
2019-01-14T06:33:49.115Z,83.88
2019-01-14T06:36:18.671Z,83.48
2019-01-14T06:38:48.237Z,81.92
2019-01-14T06:41:17.770Z,81.86
2019-01-14T06:43:47.310Z,81.20
2019-01-14T06:46:16.853Z,80.62
2019-01-14T06:48:46.382Z,80.69
2019-01-14T06:51:15.914Z,81.08
2019-01-14T06:53:45.480Z,80.96
2019-01-14T06:56:15.007Z,81.16
2019-01-14T06:58:44.561Z,81.32
2019-01-14T07:01:14.083Z,81.47
2019-01-14T07:03:43.637Z,81.35
2019-01-14T07:06:13.162Z,81.60
2019-01-14T07:08:42.720Z,79.71
2019-01-14T07:11:13.087Z,79.36
2019-01-14T07:13:42.896Z,77.40
2019-01-14T07:16:12.467Z,77.39
2019-01-14T07:18:41.995Z,77.62
2019-01-14T07:21:11.968Z,78.01
2019-01-14T07:23:41.530Z,78.48
2019-01-14T07:26:11.370Z,79.20
2019-01-14T07:28:41.164Z,79.83
2019-01-14T07:31:11.095Z,80.32
2019-01-14T07:33:41.030Z,81.28
2019-01-14T07:36:10.550Z,81.72
2019-01-14T07:38:40.514Z,82.27
2019-01-14T07:41:10.581Z,83.46
2019-01-14T07:43:40.179Z,83.05
2019-01-14T07:46:11.739Z,83.35
2019-01-14T07:48:41.470Z,83.40
2019-01-14T07:51:11.544Z,83.50
2019-01-14T07:53:41.528Z,83.34
2019-01-14T07:56:11.736Z,83.21
2019-01-14T07:58:42.464Z,83.60
2019-01-14T08:01:12.421Z,83.32
2019-01-14T08:03:42.327Z,82.29
2019-01-14T08:06:12.182Z,82.37
2019-01-14T08:08:41.775Z,82.54
2019-01-14T08:11:12.061Z,81.95
2019-01-14T08:13:42.229Z,81.90
2019-01-14T08:16:11.732Z,81.55
2019-01-14T08:18:43.282Z,81.73
2019-01-14T08:21:13.437Z,81.34
2019-01-14T08:23:43.019Z,81.13
2019-01-14T08:26:14.202Z,80.82
2019-01-14T08:28:44.152Z,80.54
2019-01-14T08:31:13.954Z,80.04
2019-01-14T08:33:44.046Z,80.02
2019-01-14T08:36:15.100Z,80.09
2019-01-14T08:38:44.625Z,79.96
2019-01-14T08:41:15.417Z,79.91
2019-01-14T08:43:46.645Z,79.98
2019-01-14T08:46:16.215Z,80.03
2019-01-14T08:48:48.897Z,80.13
2019-01-14T08:51:17.591Z,80.02
2019-01-14T08:53:47.106Z,79.68
2019-01-14T08:56:16.629Z,79.35
2019-01-14T08:58:46.582Z,79.52
2019-01-14T09:01:16.200Z,80.02
2019-01-14T09:03:46.258Z,79.65
2019-01-14T09:06:16.168Z,79.76
2019-01-14T09:08:45.718Z,79.90
2019-01-14T09:11:17.122Z,80.02
2019-01-14T09:13:47.182Z,80.21
2019-01-14T09:16:16.771Z,80.16
2019-01-14T09:18:46.873Z,80.32
2019-01-14T09:21:16.544Z,80.14
2019-01-14T09:23:46.539Z,80.52
2019-01-14T09:26:16.116Z,80.64
2019-01-14T09:28:47.198Z,80.55
2019-01-14T09:31:20.482Z,80.45
2019-01-14T09:33:50.347Z,80.47
2019-01-14T09:36:20.374Z,80.76
2019-01-14T09:38:50.388Z,80.54
2019-01-14T09:41:20.751Z,80.63
2019-01-14T09:43:50.334Z,80.50
2019-01-14T09:46:19.875Z,80.02
2019-01-14T09:48:49.446Z,80.47
2019-01-14T09:51:20.433Z,80.18
2019-01-14T09:53:50.358Z,79.75
2019-01-14T09:56:19.878Z,79.55
2019-01-14T09:58:52.210Z,79.60
2019-01-14T10:01:21.738Z,78.79
2019-01-14T10:03:51.312Z,78.76
2019-01-14T10:06:20.851Z,78.47
2019-01-14T10:08:50.467Z,78.21
2019-01-14T10:11:21.004Z,78.30
2019-01-14T10:13:50.550Z,78.08
2019-01-14T10:16:20.177Z,76.94
2019-01-14T10:18:49.718Z,74.73
2019-01-14T10:21:20.484Z,74.63
2019-01-14T10:23:51.577Z,73.92
2019-01-14T10:26:21.098Z,71.89
2019-01-14T10:28:50.729Z,71.77
2019-01-14T10:31:20.258Z,71.82
2019-01-14T10:33:49.859Z,72.98
2019-01-14T10:36:20.978Z,73.00
2019-01-14T10:38:50.740Z,72.65
2019-01-14T10:41:20.350Z,72.92
2019-01-14T10:43:49.962Z,73.13
2019-01-14T10:46:19.471Z,72.71
2019-01-14T10:48:49.022Z,72.12
2019-01-14T10:51:19.301Z,71.76
2019-01-14T10:53:48.809Z,72.21
2019-01-14T10:56:18.322Z,72.15
2019-01-14T10:58:48.981Z,71.43
2019-01-14T11:01:18.547Z,70.69
2019-01-14T11:03:50.882Z,70.34
2019-01-14T11:06:21.435Z,70.03
2019-01-14T11:08:57.564Z,69.81
2019-01-14T11:11:22.722Z,70.39
2019-01-14T11:13:58.395Z,70.15
2019-01-14T11:16:25.363Z,69.34
2019-01-14T11:18:54.918Z,68.96
2019-01-14T11:21:24.463Z,69.03
2019-01-14T11:23:53.994Z,70.01
2019-01-14T11:26:25.512Z,70.51
2019-01-14T11:28:55.254Z,71.21
2019-01-14T11:31:26.717Z,71.67
2019-01-14T11:33:56.622Z,71.27
2019-01-14T11:36:26.205Z,70.58
2019-01-14T11:38:55.993Z,71.26
2019-01-14T11:41:25.627Z,71.67
2019-01-14T11:43:55.164Z,71.21
2019-01-14T11:46:25.449Z,71.07
2019-01-14T11:48:55.271Z,70.75
2019-01-14T11:51:24.854Z,70.84
2019-01-14T11:53:54.370Z,70.17
2019-01-14T11:56:23.931Z,70.06
2019-01-14T11:58:53.468Z,69.70
2019-01-14T12:01:22.999Z,68.02
2019-01-14T12:03:52.535Z,66.33
2019-01-14T12:06:22.412Z,66.46
2019-01-14T12:08:51.967Z,67.81
2019-01-14T12:11:22.043Z,67.34
2019-01-14T12:13:51.851Z,66.77
2019-01-14T12:16:21.437Z,66.53
2019-01-14T12:18:51.229Z,66.93
2019-01-14T12:21:20.925Z,65.06
2019-01-14T12:23:50.508Z,65.54
2019-01-14T12:26:20.171Z,64.88
2019-01-14T12:28:49.872Z,65.05
2019-01-14T12:31:19.447Z,64.61
2019-01-14T12:33:49.009Z,63.61
2019-01-14T12:36:18.561Z,64.66
2019-01-14T12:38:48.102Z,64.90
2019-01-14T12:41:17.631Z,65.13
2019-01-14T12:43:47.197Z,64.91
2019-01-14T12:46:16.730Z,64.96
2019-01-14T12:48:46.273Z,65.71
2019-01-14T12:51:18.071Z,66.16
2019-01-14T12:53:49.939Z,66.05
2019-01-14T12:56:21.030Z,66.50
2019-01-14T12:58:50.861Z,66.53
2019-01-14T13:01:21.843Z,66.74
2019-01-14T13:03:51.919Z,66.99
2019-01-14T13:06:21.497Z,66.34
2019-01-14T13:08:51.047Z,67.14
2019-01-14T13:11:23.400Z,67.52
2019-01-14T13:13:54.046Z,68.10
2019-01-14T13:16:23.593Z,67.54
2019-01-14T13:18:53.148Z,67.64
2019-01-14T13:21:22.682Z,67.18
2019-01-14T13:23:53.681Z,66.62
2019-01-14T13:26:23.228Z,66.35
2019-01-14T13:28:52.793Z,65.57
2019-01-14T13:31:22.346Z,65.18
2019-01-14T13:33:51.912Z,65.34
2019-01-14T13:36:21.506Z,66.31
2019-01-14T13:38:51.066Z,64.98
2019-01-14T13:41:20.602Z,65.64
2019-01-14T13:43:50.167Z,65.70
2019-01-14T13:46:26.097Z,66.14
2019-01-14T13:48:51.288Z,67.06
2019-01-14T13:51:22.644Z,66.80
2019-01-14T13:53:52.202Z,67.01
2019-01-14T13:56:21.751Z,67.21
2019-01-14T13:58:51.273Z,66.72
2019-01-14T14:01:20.815Z,67.20
2019-01-14T14:03:50.412Z,67.55
2019-01-14T14:06:19.944Z,68.08
2019-01-14T14:08:49.521Z,67.41
2019-01-14T14:11:19.023Z,69.26
2019-01-14T14:13:48.598Z,72.02
2019-01-14T14:16:18.213Z,74.60
2019-01-14T14:18:48.459Z,77.60
2019-01-14T14:21:18.329Z,78.72
2019-01-14T14:23:49.161Z,80.27
2019-01-14T14:26:18.683Z,80.67
2019-01-14T14:28:54.196Z,80.79
2019-01-14T14:31:23.770Z,80.52
2019-01-14T14:33:53.313Z,80.11
2019-01-14T14:36:22.855Z,80.32
2019-01-14T14:38:52.420Z,79.35
2019-01-14T14:41:21.963Z,78.77
2019-01-14T14:43:51.521Z,78.65
2019-01-14T14:46:21.081Z,78.48
2019-01-14T14:48:50.627Z,77.46
2019-01-14T14:51:20.169Z,77.11
2019-01-14T14:53:49.795Z,76.79
2019-01-14T14:56:19.290Z,74.11
2019-01-14T14:58:48.875Z,72.52
2019-01-14T15:01:18.409Z,71.87
2019-01-14T15:03:48.869Z,72.80
2019-01-14T15:06:18.479Z,70.80
2019-01-14T15:08:49.261Z,71.04
2019-01-14T15:11:18.808Z,71.11
2019-01-14T15:13:48.354Z,71.30
2019-01-14T15:16:17.907Z,70.63
2019-01-14T15:18:47.435Z,70.42
2019-01-14T15:21:16.999Z,69.71
2019-01-14T15:23:46.525Z,69.76
2019-01-14T15:26:16.091Z,69.66
2019-01-14T15:28:47.721Z,69.30
2019-01-14T15:31:17.297Z,69.00
2019-01-14T15:33:46.928Z,68.45
2019-01-14T15:36:16.744Z,68.20
2019-01-14T15:38:46.292Z,68.94
2019-01-14T15:41:18.548Z,68.66
2019-01-14T15:43:48.073Z,68.57
2019-01-14T15:46:17.618Z,68.86
2019-01-14T15:48:48.023Z,68.91
2019-01-14T15:51:18.020Z,68.75
2019-01-14T15:53:47.901Z,68.25
2019-01-14T15:56:17.415Z,68.00
2019-01-14T15:58:46.941Z,68.62
2019-01-14T16:01:16.494Z,69.25
2019-01-14T16:03:46.051Z,69.06
2019-01-14T16:06:15.569Z,69.43
2019-01-14T16:08:45.125Z,69.48
2019-01-14T16:11:16.483Z,69.45
2019-01-14T16:13:46.139Z,69.56
2019-01-14T16:16:15.670Z,69.77
2019-01-14T16:18:45.233Z,69.88
2019-01-14T16:21:15.103Z,69.99
2019-01-14T16:23:44.643Z,69.66
2019-01-14T16:26:14.193Z,69.83
2019-01-14T16:28:43.715Z,69.56
2019-01-14T16:31:14.174Z,69.68
2019-01-14T16:33:43.697Z,70.07
2019-01-14T16:36:13.263Z,70.12
2019-01-14T16:38:44.419Z,70.09
2019-01-14T16:41:15.598Z,70.09
2019-01-14T16:43:45.189Z,70.16
2019-01-14T16:46:14.725Z,70.19
2019-01-14T16:48:44.271Z,70.23
2019-01-14T16:51:13.890Z,70.33
2019-01-14T16:53:43.425Z,70.41
2019-01-14T16:56:12.945Z,70.53
2019-01-14T16:58:42.971Z,70.75
2019-01-14T17:01:12.449Z,70.60
2019-01-14T17:03:41.993Z,70.87
2019-01-14T17:06:12.175Z,71.22
2019-01-14T17:08:41.752Z,70.99
2019-01-14T17:11:11.300Z,71.10
2019-01-14T17:13:40.901Z,71.07
2019-01-14T17:16:10.396Z,70.86
2019-01-14T17:18:39.924Z,70.85
2019-01-14T17:21:09.799Z,70.91
2019-01-14T17:23:39.359Z,71.37
2019-01-14T17:26:08.906Z,71.67
2019-01-14T17:28:38.444Z,71.44
2019-01-14T17:31:07.979Z,71.41
2019-01-14T17:33:37.515Z,71.38
2019-01-14T17:36:07.072Z,71.53
2019-01-14T17:38:36.947Z,71.52
2019-01-14T17:41:06.483Z,71.50
2019-01-14T17:43:36.043Z,71.90
2019-01-14T17:46:05.828Z,72.11
2019-01-14T17:48:35.365Z,72.28
2019-01-14T17:51:04.899Z,72.19
2019-01-14T17:53:34.438Z,72.19
2019-01-14T17:56:03.987Z,72.18
2019-01-14T17:58:33.794Z,72.31
2019-01-14T18:01:03.338Z,72.22
2019-01-14T18:03:32.880Z,72.41
2019-01-14T18:06:02.679Z,72.49
2019-01-14T18:08:32.270Z,72.96
2019-01-14T18:11:02.079Z,73.10
2019-01-14T18:13:31.585Z,73.52
2019-01-14T18:16:01.214Z,74.21
2019-01-14T18:18:31.055Z,74.79
2019-01-14T18:21:05.466Z,75.06
2019-01-14T18:23:32.932Z,74.89
2019-01-14T18:26:02.424Z,75.39
2019-01-14T18:28:31.974Z,75.71
2019-01-14T18:31:01.519Z,76.17
2019-01-14T18:33:31.068Z,76.71
2019-01-14T18:36:00.675Z,76.87
2019-01-14T18:38:30.227Z,77.19
2019-01-14T18:40:59.783Z,77.06
2019-01-14T18:43:29.332Z,77.22
2019-01-14T18:45:58.865Z,76.90
2019-01-14T18:48:28.397Z,76.71
2019-01-14T18:50:57.971Z,76.66
2019-01-14T18:53:27.527Z,76.60
2019-01-14T18:55:57.069Z,77.35
2019-01-14T18:58:26.647Z,77.12
2019-01-14T19:00:56.269Z,76.89
2019-01-14T19:03:25.808Z,76.85
2019-01-14T19:05:55.345Z,76.81
2019-01-14T19:08:24.893Z,76.76
2019-01-14T19:10:54.791Z,76.85
2019-01-14T19:13:24.273Z,76.89
2019-01-14T19:15:53.836Z,76.81
2019-01-14T19:18:23.631Z,76.87
2019-01-14T19:20:53.203Z,76.58
2019-01-14T19:23:23.195Z,76.55
2019-01-14T19:25:52.756Z,76.44
2019-01-14T19:28:22.284Z,76.23
2019-01-14T19:30:51.832Z,76.06
2019-01-14T19:33:21.397Z,76.02
2019-01-14T19:35:51.255Z,76.08
2019-01-14T19:38:20.738Z,75.99
2019-01-14T19:40:50.269Z,75.74
2019-01-14T19:43:19.827Z,76.00
2019-01-14T19:45:49.911Z,76.05
2019-01-14T19:48:19.859Z,75.91
2019-01-14T19:50:49.405Z,75.84
2019-01-14T19:53:18.976Z,75.86
2019-01-14T19:55:48.483Z,75.88
2019-01-14T19:58:18.016Z,75.66
2019-01-14T20:00:48.133Z,75.45
2019-01-14T20:03:18.278Z,75.46
2019-01-14T20:05:47.858Z,75.25
2019-01-14T20:08:19.038Z,75.19
2019-01-14T20:10:50.994Z,75.20
2019-01-14T20:13:20.522Z,75.14
2019-01-14T20:15:50.050Z,75.20
2019-01-14T20:18:22.483Z,75.17
2019-01-14T20:20:52.053Z,75.00
2019-01-14T20:23:22.746Z,75.22
2019-01-14T20:25:52.280Z,75.41
2019-01-14T20:28:21.821Z,75.40
2019-01-14T20:30:54.222Z,75.35
2019-01-14T20:33:32.642Z,75.37
2019-01-14T20:36:02.209Z,75.42
2019-01-14T20:38:32.268Z,75.54
2019-01-14T20:41:01.763Z,75.55
2019-01-14T20:43:31.314Z,75.60
2019-01-14T20:46:01.409Z,75.57
2019-01-14T20:48:32.700Z,75.64
2019-01-14T20:51:02.332Z,75.61
2019-01-14T20:53:32.134Z,75.77
2019-01-14T20:56:01.693Z,75.72
2019-01-14T20:58:31.317Z,75.75
2019-01-14T21:01:00.862Z,75.56
2019-01-14T21:03:30.434Z,75.55
2019-01-14T21:05:59.958Z,75.51
2019-01-14T21:08:29.567Z,75.45
2019-01-14T21:10:59.120Z,75.35
2019-01-14T21:13:28.643Z,75.18
2019-01-14T21:16:02.803Z,75.10
2019-01-14T21:18:29.467Z,75.06
2019-01-14T21:20:59.005Z,75.06
2019-01-14T21:23:28.579Z,75.01
2019-01-14T21:25:58.420Z,74.93
2019-01-14T21:28:27.975Z,75.13
2019-01-14T21:30:57.529Z,75.11
2019-01-14T21:33:27.107Z,75.21
2019-01-14T21:35:56.726Z,75.23
2019-01-14T21:38:26.265Z,75.26
2019-01-14T21:40:56.091Z,75.42
2019-01-14T21:43:25.588Z,75.35
2019-01-14T21:45:55.224Z,75.67
2019-01-14T21:48:24.789Z,75.72
2019-01-14T21:50:54.341Z,75.65
2019-01-14T21:53:23.875Z,75.67
2019-01-14T21:55:53.419Z,75.59
2019-01-14T21:58:22.975Z,75.55
2019-01-14T22:00:52.535Z,75.65
2019-01-14T22:03:22.064Z,75.64
2019-01-14T22:05:52.074Z,75.75
2019-01-14T22:08:21.607Z,76.14
2019-01-14T22:10:51.176Z,76.29
2019-01-14T22:13:20.735Z,76.25
2019-01-14T22:15:51.192Z,76.23
2019-01-14T22:18:20.720Z,76.26
2019-01-14T22:20:50.444Z,76.28
2019-01-14T22:23:19.992Z,76.47
2019-01-14T22:25:49.567Z,76.59
2019-01-14T22:28:21.236Z,76.77
2019-01-14T22:30:50.750Z,76.74
2019-01-14T22:33:21.227Z,77.14
2019-01-14T22:35:51.783Z,77.46
2019-01-14T22:38:21.321Z,77.60
2019-01-14T22:40:53.909Z,77.46
2019-01-14T22:43:23.431Z,77.50
2019-01-14T22:45:52.990Z,77.84
2019-01-14T22:48:22.522Z,77.85
2019-01-14T22:50:52.071Z,77.88
2019-01-14T22:53:21.615Z,78.14
2019-01-14T22:55:51.157Z,78.16
2019-01-14T22:58:20.726Z,78.00
2019-01-14T23:00:57.094Z,78.21
2019-01-14T23:03:26.717Z,78.17
2019-01-14T23:05:56.262Z,78.19
2019-01-14T23:08:25.818Z,78.36
2019-01-14T23:10:55.373Z,78.29
2019-01-14T23:13:24.881Z,78.48
2019-01-14T23:15:54.541Z,78.47
2019-01-14T23:18:24.080Z,78.52
2019-01-14T23:20:53.643Z,78.40
2019-01-14T23:23:23.405Z,78.25
2019-01-14T23:25:53.208Z,78.12
2019-01-14T23:28:22.750Z,78.12
2019-01-14T23:30:52.303Z,78.31
2019-01-14T23:33:21.827Z,78.21
2019-01-14T23:35:51.375Z,78.08
2019-01-14T23:38:20.905Z,78.00
2019-01-14T23:40:50.438Z,77.96
2019-01-14T23:43:19.974Z,78.31
2019-01-14T23:45:49.596Z,78.48
2019-01-14T23:48:19.155Z,78.43
2019-01-14T23:50:48.671Z,78.65
2019-01-14T23:53:18.223Z,78.53
2019-01-14T23:55:47.784Z,78.87
2019-01-14T23:58:17.307Z,78.87
